sensor_id;sensor_type;location;lat;lon;timestamp;P1;durP1;ratioP1;P2;durP2;ratioP2
63699;SDS011;49845;47.130;142.766;2022-12-18T00:00:27;7.32;;;4.07;;
63699;SDS011;49845;47.130;142.766;2022-12-18T00:03:21;8.50;;;3.65;;
63699;SDS011;49845;47.130;142.766;2022-12-18T00:06:21;4.97;;;3.22;;
63699;SDS011;49845;47.130;142.766;2022-12-18T00:09:23;5.65;;;3.58;;
63699;SDS011;49845;47.130;142.766;2022-12-18T00:12:10;6.47;;;3.33;;
63699;SDS011;49845;47.130;142.766;2022-12-18T00:15:05;6.72;;;3.47;;
63699;SDS011;49845;47.130;142.766;2022-12-18T00:17:45;6.35;;;4.03;;
63699;SDS011;49845;47.130;142.766;2022-12-18T00:20:28;8.30;;;3.75;;
63699;SDS011;49845;47.130;142.766;2022-12-18T00:23:11;6.20;;;3.90;;
63699;SDS011;49845;47.130;142.766;2022-12-18T00:25:52;10.45;;;4.03;;
63699;SDS011;49845;47.130;142.766;2022-12-18T00:28:48;7.93;;;3.88;;
63699;SDS011;49845;47.130;142.766;2022-12-18T00:31:41;8.30;;;2.97;;
63699;SDS011;49845;47.130;142.766;2022-12-18T00:34:24;11.95;;;4.65;;
63699;SDS011;49845;47.130;142.766;2022-12-18T00:37:12;6.60;;;3.95;;
63699;SDS011;49845;47.130;142.766;2022-12-18T00:40:09;6.40;;;3.30;;
63699;SDS011;49845;47.130;142.766;2022-12-18T00:42:48;5.95;;;3.78;;
63699;SDS011;49845;47.130;142.766;2022-12-18T00:45:33;4.82;;;3.20;;
63699;SDS011;49845;47.130;142.766;2022-12-18T00:48:30;5.88;;;3.47;;
63699;SDS011;49845;47.130;142.766;2022-12-18T00:51:26;6.75;;;3.50;;
63699;SDS011;49845;47.130;142.766;2022-12-18T00:54:05;7.72;;;4.15;;
63699;SDS011;49845;47.130;142.766;2022-12-18T00:56:57;6.13;;;3.15;;
63699;SDS011;49845;47.130;142.766;2022-12-18T00:59:51;5.35;;;2.50;;
63699;SDS011;49845;47.130;142.766;2022-12-18T01:02:36;5.38;;;3.33;;
63699;SDS011;49845;47.130;142.766;2022-12-18T01:05:20;5.93;;;3.58;;
63699;SDS011;49845;47.130;142.766;2022-12-18T01:08:20;8.07;;;3.13;;
63699;SDS011;49845;47.130;142.766;2022-12-18T01:11:07;6.70;;;3.78;;
63699;SDS011;49845;47.130;142.766;2022-12-18T01:13:53;5.78;;;3.50;;
63699;SDS011;49845;47.130;142.766;2022-12-18T01:16:43;4.72;;;3.15;;
63699;SDS011;49845;47.130;142.766;2022-12-18T01:19:34;7.95;;;3.58;;
63699;SDS011;49845;47.130;142.766;2022-12-18T01:22:19;5.28;;;3.70;;
63699;SDS011;49845;47.130;142.766;2022-12-18T01:25:18;5.28;;;4.25;;
63699;SDS011;49845;47.130;142.766;2022-12-18T01:27:59;5.25;;;3.10;;
63699;SDS011;49845;47.130;142.766;2022-12-18T01:30:45;8.50;;;3.33;;
63699;SDS011;49845;47.130;142.766;2022-12-18T01:33:41;5.60;;;3.33;;
63699;SDS011;49845;47.130;142.766;2022-12-18T01:36:22;4.32;;;2.83;;
63699;SDS011;49845;47.130;142.766;2022-12-18T01:39:12;5.43;;;3.28;;
63699;SDS011;49845;47.130;142.766;2022-12-18T01:42:08;4.80;;;2.92;;
63699;SDS011;49845;47.130;142.766;2022-12-18T01:44:57;4.63;;;3.20;;
63699;SDS011;49845;47.130;142.766;2022-12-18T01:48:02;7.30;;;3.53;;
63699;SDS011;49845;47.130;142.766;2022-12-18T01:50:55;5.30;;;3.63;;
63699;SDS011;49845;47.130;142.766;2022-12-18T01:53:32;5.45;;;3.50;;
63699;SDS011;49845;47.130;142.766;2022-12-18T01:56:18;8.43;;;4.50;;
63699;SDS011;49845;47.130;142.766;2022-12-18T01:59:07;6.85;;;3.47;;
63699;SDS011;49845;47.130;142.766;2022-12-18T02:02:08;10.52;;;4.28;;
63699;SDS011;49845;47.130;142.766;2022-12-18T02:04:46;4.60;;;2.90;;
63699;SDS011;49845;47.130;142.766;2022-12-18T02:07:26;6.50;;;3.63;;
63699;SDS011;49845;47.130;142.766;2022-12-18T02:10:20;4.28;;;2.95;;
63699;SDS011;49845;47.130;142.766;2022-12-18T02:13:14;4.80;;;3.22;;
63699;SDS011;49845;47.130;142.766;2022-12-18T02:16:28;6.55;;;2.80;;
63699;SDS011;49845;47.130;142.766;2022-12-18T02:22:26;6.82;;;3.00;;
63699;SDS011;49845;47.130;142.766;2022-12-18T02:25:24;7.15;;;3.20;;
63699;SDS011;49845;47.130;142.766;2022-12-18T02:28:15;4.65;;;3.17;;
63699;SDS011;49845;47.130;142.766;2022-12-18T02:31:16;5.43;;;2.70;;
63699;SDS011;49845;47.130;142.766;2022-12-18T02:34:10;5.68;;;2.92;;
63699;SDS011;49845;47.130;142.766;2022-12-18T02:36:54;5.57;;;2.80;;
63699;SDS011;49845;47.130;142.766;2022-12-18T02:39:35;5.22;;;2.92;;
63699;SDS011;49845;47.130;142.766;2022-12-18T02:42:39;4.40;;;2.50;;
63699;SDS011;49845;47.130;142.766;2022-12-18T02:45:57;4.43;;;2.90;;
63699;SDS011;49845;47.130;142.766;2022-12-18T02:49:17;7.60;;;3.78;;
63699;SDS011;49845;47.130;142.766;2022-12-18T02:52:20;5.28;;;3.10;;
63699;SDS011;49845;47.130;142.766;2022-12-18T02:55:08;8.90;;;4.47;;
63699;SDS011;49845;47.130;142.766;2022-12-18T02:58:01;6.05;;;3.88;;
63699;SDS011;49845;47.130;142.766;2022-12-18T03:00:48;7.10;;;3.50;;
63699;SDS011;49845;47.130;142.766;2022-12-18T03:03:43;4.55;;;3.00;;
63699;SDS011;49845;47.130;142.766;2022-12-18T03:06:27;6.32;;;3.55;;
63699;SDS011;49845;47.130;142.766;2022-12-18T03:09:12;9.07;;;3.20;;
63699;SDS011;49845;47.130;142.766;2022-12-18T03:12:10;5.28;;;3.55;;
63699;SDS011;49845;47.130;142.766;2022-12-18T03:15:00;4.57;;;3.22;;
63699;SDS011;49845;47.130;142.766;2022-12-18T03:17:50;8.60;;;3.15;;
63699;SDS011;49845;47.130;142.766;2022-12-18T03:21:02;3.92;;;2.47;;
63699;SDS011;49845;47.130;142.766;2022-12-18T03:23:55;7.05;;;3.53;;
63699;SDS011;49845;47.130;142.766;2022-12-18T03:26:35;4.78;;;3.33;;
63699;SDS011;49845;47.130;142.766;2022-12-18T03:29:35;5.90;;;3.60;;
63699;SDS011;49845;47.130;142.766;2022-12-18T03:32:35;5.68;;;3.58;;
63699;SDS011;49845;47.130;142.766;2022-12-18T03:35:37;7.22;;;4.07;;
63699;SDS011;49845;47.130;142.766;2022-12-18T03:38:39;10.10;;;4.07;;
63699;SDS011;49845;47.130;142.766;2022-12-18T03:41:27;5.80;;;3.53;;
63699;SDS011;49845;47.130;142.766;2022-12-18T03:44:13;12.25;;;4.88;;
63699;SDS011;49845;47.130;142.766;2022-12-18T03:47:10;4.80;;;2.63;;
63699;SDS011;49845;47.130;142.766;2022-12-18T03:50:03;7.80;;;3.00;;
63699;SDS011;49845;47.130;142.766;2022-12-18T03:53:03;2.58;;;2.35;;
63699;SDS011;49845;47.130;142.766;2022-12-18T03:56:07;3.63;;;2.58;;
63699;SDS011;49845;47.130;142.766;2022-12-18T03:59:20;5.88;;;3.10;;
63699;SDS011;49845;47.130;142.766;2022-12-18T04:02:04;4.45;;;3.05;;
63699;SDS011;49845;47.130;142.766;2022-12-18T04:04:43;5.93;;;3.03;;
63699;SDS011;49845;47.130;142.766;2022-12-18T04:07:22;5.25;;;3.20;;
63699;SDS011;49845;47.130;142.766;2022-12-18T04:10:07;5.80;;;3.28;;
63699;SDS011;49845;47.130;142.766;2022-12-18T04:12:47;4.68;;;2.30;;
63699;SDS011;49845;47.130;142.766;2022-12-18T04:15:31;2.90;;;2.58;;
63699;SDS011;49845;47.130;142.766;2022-12-18T04:18:23;4.93;;;2.10;;
63699;SDS011;49845;47.130;142.766;2022-12-18T04:21:18;4.43;;;2.10;;
63699;SDS011;49845;47.130;142.766;2022-12-18T04:24:15;3.83;;;2.55;;
63699;SDS011;49845;47.130;142.766;2022-12-18T04:26:54;2.67;;;2.20;;
63699;SDS011;49845;47.130;142.766;2022-12-18T04:29:41;3.67;;;2.33;;
63699;SDS011;49845;47.130;142.766;2022-12-18T04:32:25;3.47;;;2.40;;
63699;SDS011;49845;47.130;142.766;2022-12-18T04:35:20;3.17;;;2.15;;
63699;SDS011;49845;47.130;142.766;2022-12-18T04:38:16;4.07;;;2.08;;
63699;SDS011;49845;47.130;142.766;2022-12-18T04:40:55;3.90;;;2.28;;
63699;SDS011;49845;47.130;142.766;2022-12-18T04:43:31;5.38;;;2.38;;
63699;SDS011;49845;47.130;142.766;2022-12-18T04:46:19;3.38;;;1.80;;
63699;SDS011;49845;47.130;142.766;2022-12-18T04:49:05;2.53;;;1.95;;
63699;SDS011;49845;47.130;142.766;2022-12-18T04:54:40;2.20;;;1.98;;
63699;SDS011;49845;47.130;142.766;2022-12-18T04:57:32;2.05;;;1.83;;
63699;SDS011;49845;47.130;142.766;2022-12-18T05:00:36;4.10;;;2.28;;
63699;SDS011;49845;47.130;142.766;2022-12-18T05:03:31;1.88;;;1.77;;
63699;SDS011;49845;47.130;142.766;2022-12-18T05:06:29;4.13;;;2.45;;
63699;SDS011;49845;47.130;142.766;2022-12-18T05:09:09;2.47;;;1.80;;
63699;SDS011;49845;47.130;142.766;2022-12-18T05:11:50;6.88;;;2.10;;
63699;SDS011;49845;47.130;142.766;2022-12-18T05:14:28;4.38;;;2.42;;
63699;SDS011;49845;47.130;142.766;2022-12-18T05:17:17;2.05;;;1.83;;
63699;SDS011;49845;47.130;142.766;2022-12-18T05:20:18;2.53;;;2.22;;
63699;SDS011;49845;47.130;142.766;2022-12-18T05:22:55;2.35;;;2.15;;
63699;SDS011;49845;47.130;142.766;2022-12-18T05:25:42;3.33;;;2.20;;
63699;SDS011;49845;47.130;142.766;2022-12-18T05:28:24;3.97;;;1.80;;
63699;SDS011;49845;47.130;142.766;2022-12-18T05:31:13;3.53;;;2.50;;
63699;SDS011;49845;47.130;142.766;2022-12-18T05:34:07;2.72;;;1.90;;
63699;SDS011;49845;47.130;142.766;2022-12-18T05:37:21;2.42;;;2.22;;
63699;SDS011;49845;47.130;142.766;2022-12-18T05:40:17;2.22;;;2.00;;
63699;SDS011;49845;47.130;142.766;2022-12-18T05:43:08;3.25;;;2.20;;
63699;SDS011;49845;47.130;142.766;2022-12-18T05:45:55;2.85;;;2.10;;
63699;SDS011;49845;47.130;142.766;2022-12-18T05:48:32;3.88;;;2.40;;
63699;SDS011;49845;47.130;142.766;2022-12-18T05:51:30;4.40;;;2.28;;
63699;SDS011;49845;47.130;142.766;2022-12-18T05:54:42;2.58;;;2.25;;
63699;SDS011;49845;47.130;142.766;2022-12-18T05:57:35;2.35;;;2.15;;
63699;SDS011;49845;47.130;142.766;2022-12-18T06:00:21;4.68;;;2.53;;
63699;SDS011;49845;47.130;142.766;2022-12-18T06:03:10;4.72;;;2.42;;
63699;SDS011;49845;47.130;142.766;2022-12-18T06:06:03;3.80;;;2.28;;
63699;SDS011;49845;47.130;142.766;2022-12-18T06:09:02;2.75;;;2.42;;
63699;SDS011;49845;47.130;142.766;2022-12-18T06:11:51;2.40;;;2.20;;
63699;SDS011;49845;47.130;142.766;2022-12-18T06:14:39;4.97;;;2.63;;
63699;SDS011;49845;47.130;142.766;2022-12-18T06:17:33;3.00;;;2.58;;
63699;SDS011;49845;47.130;142.766;2022-12-18T06:20:11;4.63;;;2.17;;
63699;SDS011;49845;47.130;142.766;2022-12-18T06:23:12;3.78;;;2.20;;
63699;SDS011;49845;47.130;142.766;2022-12-18T06:25:57;3.10;;;2.05;;
63699;SDS011;49845;47.130;142.766;2022-12-18T06:28:59;3.65;;;2.55;;
63699;SDS011;49845;47.130;142.766;2022-12-18T06:31:50;3.72;;;2.30;;
63699;SDS011;49845;47.130;142.766;2022-12-18T06:34:48;3.08;;;2.33;;
63699;SDS011;49845;47.130;142.766;2022-12-18T06:37:23;5.10;;;2.33;;
63699;SDS011;49845;47.130;142.766;2022-12-18T06:40:10;2.78;;;2.45;;
63699;SDS011;49845;47.130;142.766;2022-12-18T06:43:01;3.80;;;2.58;;
63699;SDS011;49845;47.130;142.766;2022-12-18T06:45:57;4.35;;;2.38;;
63699;SDS011;49845;47.130;142.766;2022-12-18T06:48:36;2.75;;;2.42;;
63699;SDS011;49845;47.130;142.766;2022-12-18T06:51:15;2.58;;;2.20;;
63699;SDS011;49845;47.130;142.766;2022-12-18T06:53:58;4.35;;;2.10;;
63699;SDS011;49845;47.130;142.766;2022-12-18T06:56:37;3.67;;;2.33;;
63699;SDS011;49845;47.130;142.766;2022-12-18T06:59:17;2.95;;;2.28;;
63699;SDS011;49845;47.130;142.766;2022-12-18T07:04:56;3.88;;;2.60;;
63699;SDS011;49845;47.130;142.766;2022-12-18T07:08:14;4.30;;;2.40;;
63699;SDS011;49845;47.130;142.766;2022-12-18T07:11:28;5.95;;;2.28;;
63699;SDS011;49845;47.130;142.766;2022-12-18T07:14:15;3.35;;;2.05;;
63699;SDS011;49845;47.130;142.766;2022-12-18T07:17:19;4.22;;;2.22;;
63699;SDS011;49845;47.130;142.766;2022-12-18T07:20:14;6.25;;;2.70;;
63699;SDS011;49845;47.130;142.766;2022-12-18T07:22:51;6.40;;;2.20;;
63699;SDS011;49845;47.130;142.766;2022-12-18T07:25:29;2.03;;;1.90;;
63699;SDS011;49845;47.130;142.766;2022-12-18T07:31:11;5.03;;;2.58;;
63699;SDS011;49845;47.130;142.766;2022-12-18T07:34:01;3.42;;;2.85;;
63699;SDS011;49845;47.130;142.766;2022-12-18T07:36:52;4.70;;;2.63;;
63699;SDS011;49845;47.130;142.766;2022-12-18T07:39:30;8.13;;;2.63;;
63699;SDS011;49845;47.130;142.766;2022-12-18T07:42:09;6.03;;;2.90;;
63699;SDS011;49845;47.130;142.766;2022-12-18T07:45:03;5.53;;;2.60;;
63699;SDS011;49845;47.130;142.766;2022-12-18T07:47:58;4.63;;;2.67;;
63699;SDS011;49845;47.130;142.766;2022-12-18T07:50:55;15.18;;;2.15;;
63699;SDS011;49845;47.130;142.766;2022-12-18T07:56:51;4.88;;;2.80;;
63699;SDS011;49845;47.130;142.766;2022-12-18T07:59:53;3.85;;;2.45;;
63699;SDS011;49845;47.130;142.766;2022-12-18T08:02:31;3.72;;;2.38;;
63699;SDS011;49845;47.130;142.766;2022-12-18T08:05:34;5.63;;;2.63;;
63699;SDS011;49845;47.130;142.766;2022-12-18T08:08:27;4.07;;;2.58;;
63699;SDS011;49845;47.130;142.766;2022-12-18T08:11:32;8.57;;;4.13;;
63699;SDS011;49845;47.130;142.766;2022-12-18T08:14:08;7.20;;;3.53;;
63699;SDS011;49845;47.130;142.766;2022-12-18T08:16:45;6.90;;;3.58;;
63699;SDS011;49845;47.130;142.766;2022-12-18T08:19:48;6.45;;;3.38;;
63699;SDS011;49845;47.130;142.766;2022-12-18T08:22:29;5.93;;;3.88;;
63699;SDS011;49845;47.130;142.766;2022-12-18T08:25:18;6.18;;;3.42;;
63699;SDS011;49845;47.130;142.766;2022-12-18T08:28:02;7.85;;;3.70;;
63699;SDS011;49845;47.130;142.766;2022-12-18T08:31:14;6.50;;;3.50;;
63699;SDS011;49845;47.130;142.766;2022-12-18T08:33:51;7.25;;;4.65;;
63699;SDS011;49845;47.130;142.766;2022-12-18T08:36:36;10.93;;;3.92;;
63699;SDS011;49845;47.130;142.766;2022-12-18T08:39:20;9.50;;;4.70;;
63699;SDS011;49845;47.130;142.766;2022-12-18T08:45:37;8.85;;;4.00;;
63699;SDS011;49845;47.130;142.766;2022-12-18T08:48:17;3.85;;;2.90;;
63699;SDS011;49845;47.130;142.766;2022-12-18T08:50:54;4.90;;;3.38;;
63699;SDS011;49845;47.130;142.766;2022-12-18T08:53:49;19.75;;;5.00;;
63699;SDS011;49845;47.130;142.766;2022-12-18T08:56:42;8.57;;;3.92;;
63699;SDS011;49845;47.130;142.766;2022-12-18T08:59:32;8.55;;;3.83;;
63699;SDS011;49845;47.130;142.766;2022-12-18T09:02:17;14.80;;;4.63;;
63699;SDS011;49845;47.130;142.766;2022-12-18T09:04:59;8.93;;;4.32;;
63699;SDS011;49845;47.130;142.766;2022-12-18T09:07:44;6.68;;;3.05;;
63699;SDS011;49845;47.130;142.766;2022-12-18T09:10:40;14.73;;;4.90;;
63699;SDS011;49845;47.130;142.766;2022-12-18T09:13:23;5.57;;;3.40;;
63699;SDS011;49845;47.130;142.766;2022-12-18T09:16:03;5.68;;;3.88;;
63699;SDS011;49845;47.130;142.766;2022-12-18T09:18:46;5.15;;;3.70;;
63699;SDS011;49845;47.130;142.766;2022-12-18T09:21:51;3.25;;;2.55;;
63699;SDS011;49845;47.130;142.766;2022-12-18T09:24:38;6.03;;;2.58;;
63699;SDS011;49845;47.130;142.766;2022-12-18T09:27:32;2.38;;;2.05;;
63699;SDS011;49845;47.130;142.766;2022-12-18T09:30:17;10.55;;;2.92;;
63699;SDS011;49845;47.130;142.766;2022-12-18T09:33:23;5.40;;;3.05;;
63699;SDS011;49845;47.130;142.766;2022-12-18T09:36:10;2.03;;;1.90;;
63699;SDS011;49845;47.130;142.766;2022-12-18T09:38:51;8.82;;;3.55;;
63699;SDS011;49845;47.130;142.766;2022-12-18T09:42:09;20.70;;;8.02;;
63699;SDS011;49845;47.130;142.766;2022-12-18T09:45:02;6.97;;;3.50;;
63699;SDS011;49845;47.130;142.766;2022-12-18T09:47:55;3.33;;;2.42;;
63699;SDS011;49845;47.130;142.766;2022-12-18T09:53:46;4.85;;;3.13;;
63699;SDS011;49845;47.130;142.766;2022-12-18T09:56:31;2.45;;;2.30;;
63699;SDS011;49845;47.130;142.766;2022-12-18T09:59:49;4.15;;;2.95;;
63699;SDS011;49845;47.130;142.766;2022-12-18T10:02:30;6.65;;;3.08;;
63699;SDS011;49845;47.130;142.766;2022-12-18T10:05:06;4.65;;;3.35;;
63699;SDS011;49845;47.130;142.766;2022-12-18T10:08:29;7.40;;;3.35;;
63699;SDS011;49845;47.130;142.766;2022-12-18T10:11:34;4.03;;;3.10;;
63699;SDS011;49845;47.130;142.766;2022-12-18T10:14:57;3.25;;;2.05;;
63699;SDS011;49845;47.130;142.766;2022-12-18T10:21:13;3.03;;;2.40;;
63699;SDS011;49845;47.130;142.766;2022-12-18T10:24:16;7.90;;;3.30;;
63699;SDS011;49845;47.130;142.766;2022-12-18T10:27:11;6.05;;;3.47;;
63699;SDS011;49845;47.130;142.766;2022-12-18T10:29:55;5.22;;;3.70;;
63699;SDS011;49845;47.130;142.766;2022-12-18T10:32:42;5.22;;;2.80;;
63699;SDS011;49845;47.130;142.766;2022-12-18T10:35:53;7.68;;;3.92;;
63699;SDS011;49845;47.130;142.766;2022-12-18T10:38:40;9.63;;;4.78;;
63699;SDS011;49845;47.130;142.766;2022-12-18T10:45:20;4.57;;;2.70;;
63699;SDS011;49845;47.130;142.766;2022-12-18T10:48:19;7.43;;;4.10;;
63699;SDS011;49845;47.130;142.766;2022-12-18T10:51:06;8.13;;;4.68;;
63699;SDS011;49845;47.130;142.766;2022-12-18T10:54:02;15.15;;;8.20;;
63699;SDS011;49845;47.130;142.766;2022-12-18T11:03:35;8.98;;;4.30;;
63699;SDS011;49845;47.130;142.766;2022-12-18T11:06:16;6.50;;;3.15;;
63699;SDS011;49845;47.130;142.766;2022-12-18T11:09:03;19.40;;;6.25;;
63699;SDS011;49845;47.130;142.766;2022-12-18T11:12:29;21.15;;;6.57;;
63699;SDS011;49845;47.130;142.766;2022-12-18T11:15:26;41.75;;;13.63;;
63699;SDS011;49845;47.130;142.766;2022-12-18T11:18:19;23.48;;;8.05;;
63699;SDS011;49845;47.130;142.766;2022-12-18T11:21:23;25.83;;;9.35;;
63699;SDS011;49845;47.130;142.766;2022-12-18T11:24:19;13.20;;;8.13;;
63699;SDS011;49845;47.130;142.766;2022-12-18T11:27:38;7.05;;;5.00;;
63699;SDS011;49845;47.130;142.766;2022-12-18T11:30:47;11.15;;;6.28;;
63699;SDS011;49845;47.130;142.766;2022-12-18T11:34:02;12.50;;;5.72;;
63699;SDS011;49845;47.130;142.766;2022-12-18T11:36:58;7.10;;;3.90;;
63699;SDS011;49845;47.130;142.766;2022-12-18T11:40:14;4.97;;;2.72;;
63699;SDS011;49845;47.130;142.766;2022-12-18T11:42:53;4.28;;;2.80;;
63699;SDS011;49845;47.130;142.766;2022-12-18T11:45:38;5.25;;;2.90;;
63699;SDS011;49845;47.130;142.766;2022-12-18T11:48:24;20.27;;;7.93;;
63699;SDS011;49845;47.130;142.766;2022-12-18T11:51:28;36.45;;;12.13;;
63699;SDS011;49845;47.130;142.766;2022-12-18T11:54:22;15.50;;;6.38;;
63699;SDS011;49845;47.130;142.766;2022-12-18T11:57:00;9.85;;;5.13;;
63699;SDS011;49845;47.130;142.766;2022-12-18T12:00:07;14.30;;;7.55;;
63699;SDS011;49845;47.130;142.766;2022-12-18T12:06:59;3.20;;;2.53;;
63699;SDS011;49845;47.130;142.766;2022-12-18T12:09:45;4.97;;;2.20;;
63699;SDS011;49845;47.130;142.766;2022-12-18T12:13:03;4.32;;;2.58;;
63699;SDS011;49845;47.130;142.766;2022-12-18T12:16:01;3.15;;;2.30;;
63699;SDS011;49845;47.130;142.766;2022-12-18T12:19:07;4.30;;;2.35;;
63699;SDS011;49845;47.130;142.766;2022-12-18T12:22:29;3.80;;;2.58;;
63699;SDS011;49845;47.130;142.766;2022-12-18T12:25:19;3.97;;;2.33;;
63699;SDS011;49845;47.130;142.766;2022-12-18T12:28:39;4.07;;;2.83;;
63699;SDS011;49845;47.130;142.766;2022-12-18T12:31:36;2.85;;;2.28;;
63699;SDS011;49845;47.130;142.766;2022-12-18T12:34:46;3.38;;;2.15;;
63699;SDS011;49845;47.130;142.766;2022-12-18T12:37:40;4.10;;;2.13;;
63699;SDS011;49845;47.130;142.766;2022-12-18T12:40:34;6.28;;;2.80;;
63699;SDS011;49845;47.130;142.766;2022-12-18T12:43:35;2.72;;;2.38;;
63699;SDS011;49845;47.130;142.766;2022-12-18T12:46:21;5.28;;;2.65;;
63699;SDS011;49845;47.130;142.766;2022-12-18T12:49:09;2.22;;;2.03;;
63699;SDS011;49845;47.130;142.766;2022-12-18T12:52:10;3.65;;;2.47;;
63699;SDS011;49845;47.130;142.766;2022-12-18T12:55:01;4.45;;;2.10;;
63699;SDS011;49845;47.130;142.766;2022-12-18T12:58:17;5.15;;;2.30;;
63699;SDS011;49845;47.130;142.766;2022-12-18T13:01:13;5.15;;;2.40;;
63699;SDS011;49845;47.130;142.766;2022-12-18T13:04:05;5.25;;;2.28;;
63699;SDS011;49845;47.130;142.766;2022-12-18T13:06:56;2.13;;;2.00;;
63699;SDS011;49845;47.130;142.766;2022-12-18T13:13:09;3.08;;;1.92;;
63699;SDS011;49845;47.130;142.766;2022-12-18T13:16:03;2.58;;;2.15;;
63699;SDS011;49845;47.130;142.766;2022-12-18T13:18:41;5.25;;;2.60;;
63699;SDS011;49845;47.130;142.766;2022-12-18T13:21:32;6.68;;;3.15;;
63699;SDS011;49845;47.130;142.766;2022-12-18T13:24:31;3.85;;;3.10;;
63699;SDS011;49845;47.130;142.766;2022-12-18T13:33:43;8.48;;;4.65;;
63699;SDS011;49845;47.130;142.766;2022-12-18T13:36:47;5.00;;;3.67;;
63699;SDS011;49845;47.130;142.766;2022-12-18T13:39:37;5.30;;;2.75;;
63699;SDS011;49845;47.130;142.766;2022-12-18T13:42:36;5.47;;;2.60;;
63699;SDS011;49845;47.130;142.766;2022-12-18T13:45:41;4.45;;;2.25;;
63699;SDS011;49845;47.130;142.766;2022-12-18T13:48:39;4.68;;;2.42;;
63699;SDS011;49845;47.130;142.766;2022-12-18T13:51:40;2.45;;;2.20;;
63699;SDS011;49845;47.130;142.766;2022-12-18T13:54:28;3.28;;;2.25;;
63699;SDS011;49845;47.130;142.766;2022-12-18T13:57:32;2.45;;;2.03;;
63699;SDS011;49845;47.130;142.766;2022-12-18T14:00:34;2.72;;;2.15;;
63699;SDS011;49845;47.130;142.766;2022-12-18T14:03:35;3.88;;;2.20;;
63699;SDS011;49845;47.130;142.766;2022-12-18T14:06:24;4.25;;;2.30;;
63699;SDS011;49845;47.130;142.766;2022-12-18T14:09:15;3.22;;;2.10;;
63699;SDS011;49845;47.130;142.766;2022-12-18T14:12:04;8.05;;;2.50;;
63699;SDS011;49845;47.130;142.766;2022-12-18T14:15:03;4.18;;;2.63;;
63699;SDS011;49845;47.130;142.766;2022-12-18T14:17:49;7.95;;;4.93;;
63699;SDS011;49845;47.130;142.766;2022-12-18T14:24:14;5.15;;;2.88;;
63699;SDS011;49845;47.130;142.766;2022-12-18T14:26:56;7.70;;;2.78;;
63699;SDS011;49845;47.130;142.766;2022-12-18T14:29:56;17.40;;;6.25;;
63699;SDS011;49845;47.130;142.766;2022-12-18T14:32:33;21.13;;;8.25;;
63699;SDS011;49845;47.130;142.766;2022-12-18T14:35:29;16.25;;;6.43;;
63699;SDS011;49845;47.130;142.766;2022-12-18T14:38:26;10.35;;;3.83;;
63699;SDS011;49845;47.130;142.766;2022-12-18T14:41:13;6.05;;;3.08;;
63699;SDS011;49845;47.130;142.766;2022-12-18T14:44:10;4.53;;;2.90;;
63699;SDS011;49845;47.130;142.766;2022-12-18T14:47:19;2.60;;;2.00;;
63699;SDS011;49845;47.130;142.766;2022-12-18T14:50:12;4.20;;;2.58;;
63699;SDS011;49845;47.130;142.766;2022-12-18T14:52:56;8.35;;;2.72;;
63699;SDS011;49845;47.130;142.766;2022-12-18T14:55:39;7.70;;;3.33;;
63699;SDS011;49845;47.130;142.766;2022-12-18T14:58:23;10.90;;;3.92;;
63699;SDS011;49845;47.130;142.766;2022-12-18T15:01:18;12.30;;;4.63;;
63699;SDS011;49845;47.130;142.766;2022-12-18T15:04:04;11.40;;;4.43;;
63699;SDS011;49845;47.130;142.766;2022-12-18T15:07:04;23.48;;;9.80;;
63699;SDS011;49845;47.130;142.766;2022-12-18T15:10:01;15.10;;;6.20;;
63699;SDS011;49845;47.130;142.766;2022-12-18T15:16:23;4.60;;;3.03;;
63699;SDS011;49845;47.130;142.766;2022-12-18T15:19:14;4.88;;;2.58;;
63699;SDS011;49845;47.130;142.766;2022-12-18T15:21:55;7.28;;;3.05;;
63699;SDS011;49845;47.130;142.766;2022-12-18T15:24:38;5.65;;;2.30;;
63699;SDS011;49845;47.130;142.766;2022-12-18T15:27:38;6.63;;;2.50;;
63699;SDS011;49845;47.130;142.766;2022-12-18T15:30:31;30.17;;;7.88;;
63699;SDS011;49845;47.130;142.766;2022-12-18T15:33:26;45.60;;;10.57;;
63699;SDS011;49845;47.130;142.766;2022-12-18T15:36:24;51.10;;;10.65;;
63699;SDS011;49845;47.130;142.766;2022-12-18T15:39:37;69.93;;;13.90;;
63699;SDS011;49845;47.130;142.766;2022-12-18T15:42:41;34.00;;;7.63;;
63699;SDS011;49845;47.130;142.766;2022-12-18T15:45:38;29.73;;;7.57;;
63699;SDS011;49845;47.130;142.766;2022-12-18T15:48:19;8.85;;;3.45;;
63699;SDS011;49845;47.130;142.766;2022-12-18T15:51:04;2.35;;;2.15;;
63699;SDS011;49845;47.130;142.766;2022-12-18T15:53:44;34.70;;;9.15;;
63699;SDS011;49845;47.130;142.766;2022-12-18T15:56:42;30.40;;;7.20;;
63699;SDS011;49845;47.130;142.766;2022-12-18T15:59:42;13.27;;;4.25;;
63699;SDS011;49845;47.130;142.766;2022-12-18T16:02:35;27.17;;;7.10;;
63699;SDS011;49845;47.130;142.766;2022-12-18T16:05:34;36.00;;;10.75;;
63699;SDS011;49845;47.130;142.766;2022-12-18T16:08:14;37.85;;;9.18;;
63699;SDS011;49845;47.130;142.766;2022-12-18T16:11:03;13.27;;;5.05;;
63699;SDS011;49845;47.130;142.766;2022-12-18T16:13:39;5.55;;;3.30;;
63699;SDS011;49845;47.130;142.766;2022-12-18T16:16:20;3.95;;;2.80;;
63699;SDS011;49845;47.130;142.766;2022-12-18T16:18:57;5.38;;;2.42;;
63699;SDS011;49845;47.130;142.766;2022-12-18T16:22:15;4.05;;;2.45;;
63699;SDS011;49845;47.130;142.766;2022-12-18T16:25:15;2.88;;;2.17;;
63699;SDS011;49845;47.130;142.766;2022-12-18T16:28:12;5.68;;;2.58;;
63699;SDS011;49845;47.130;142.766;2022-12-18T16:31:15;25.02;;;8.23;;
63699;SDS011;49845;47.130;142.766;2022-12-18T16:40:30;29.40;;;10.18;;
63699;SDS011;49845;47.130;142.766;2022-12-18T16:43:39;15.23;;;6.43;;
63699;SDS011;49845;47.130;142.766;2022-12-18T16:46:27;8.98;;;4.60;;
63699;SDS011;49845;47.130;142.766;2022-12-18T16:49:13;33.10;;;10.75;;
63699;SDS011;49845;47.130;142.766;2022-12-18T16:52:08;8.43;;;4.45;;
63699;SDS011;49845;47.130;142.766;2022-12-18T16:54:53;4.20;;;3.10;;
63699;SDS011;49845;47.130;142.766;2022-12-18T16:57:39;6.30;;;3.33;;
63699;SDS011;49845;47.130;142.766;2022-12-18T17:00:47;6.05;;;3.70;;
63699;SDS011;49845;47.130;142.766;2022-12-18T17:03:53;4.55;;;2.85;;
63699;SDS011;49845;47.130;142.766;2022-12-18T17:07:01;5.22;;;2.45;;
63699;SDS011;49845;47.130;142.766;2022-12-18T17:09:41;4.20;;;2.72;;
63699;SDS011;49845;47.130;142.766;2022-12-18T17:12:23;5.28;;;2.90;;
63699;SDS011;49845;47.130;142.766;2022-12-18T17:15:15;2.55;;;2.28;;
63699;SDS011;49845;47.130;142.766;2022-12-18T17:18:03;5.70;;;3.05;;
63699;SDS011;49845;47.130;142.766;2022-12-18T17:21:03;7.43;;;2.90;;
63699;SDS011;49845;47.130;142.766;2022-12-18T17:24:10;5.50;;;3.33;;
63699;SDS011;49845;47.130;142.766;2022-12-18T17:26:53;5.75;;;3.15;;
63699;SDS011;49845;47.130;142.766;2022-12-18T17:29:46;5.85;;;3.25;;
63699;SDS011;49845;47.130;142.766;2022-12-18T17:32:49;4.15;;;2.83;;
63699;SDS011;49845;47.130;142.766;2022-12-18T17:35:39;5.90;;;3.50;;
63699;SDS011;49845;47.130;142.766;2022-12-18T17:38:33;4.35;;;2.90;;
63699;SDS011;49845;47.130;142.766;2022-12-18T17:41:20;5.55;;;2.70;;
63699;SDS011;49845;47.130;142.766;2022-12-18T17:43:58;4.57;;;2.78;;
63699;SDS011;49845;47.130;142.766;2022-12-18T17:46:50;4.30;;;2.90;;